IST,Max TemperatureF,Mean TemperatureF,Min TemperatureF,Max Dew PointF,MeanDew PointF,Min DewpointF,Max Humidity, Mean Humidity, Min Humidity, Max Sea Level PressureIn, Mean Sea Level PressureIn, Min Sea Level PressureIn, Max VisibilityMiles, Mean VisibilityMiles, Min VisibilityMiles, Max Wind SpeedMPH, Mean Wind SpeedMPH, Max Gust SpeedMPH,PrecipitationIn, CloudCover, Events, WindDirDegrees
2013-8-1,68,65,62,66,64,57,100,94,82,29.65,29.53,29.42,12,6,2,22,12,,0.12,5,Rain,140
2013-8-2,67,62,58,58,55,50,94,78,59,29.68,29.54,29.44,19,7,4,25,16,,0.04,4,Rain,205
2013-8-3,66,60,55,57,54,50,94,81,59,29.92,29.82,29.68,16,7,1,20,12,,0.39,4,Rain-Thunderstorm,220
2013-8-4,67,59,51,57,54,52,100,81,62,29.91,29.88,29.86,19,7,4,12,7,,0.00,4,Rain,142
2013-8-5,66,58,50,54,51,46,100,77,52,30.01,29.91,29.86,16,6,6,18,9,,0.00,5,,298
2013-8-6,68,61,54,54,53,52,94,76,50,30.01,29.94,29.86,12,6,5,17,8,,0.00,6,Rain,177
2013-8-7,70,63,56,55,53,48,88,71,44,30.06,29.98,29.89,16,6,6,11,7,,0.00,6,,79
2013-8-8,68,62,55,61,57,54,94,84,59,30.07,30.00,29.92,19,7,2,21,9,,0.01,6,Rain,177
2013-8-9,65,61,57,55,51,46,88,73,51,30.24,30.16,30.01,16,6,6,17,11,,0.00,6,Rain,264
2013-8-10,67,62,56,59,54,48,94,81,60,30.25,30.18,30.12,16,7,4,17,9,,0.00,6,Rain,221
2013-8-11,65,60,55,54,52,48,94,77,51,30.15,30.10,30.09,12,6,5,24,13,,0.00,6,Rain,264
2013-8-12,64,58,53,54,50,46,88,72,51,30.21,30.14,30.09,19,7,6,18,11,,0.02,5,Rain,271
2013-8-13,68,62,56,57,55,52,94,80,56,30.23,30.18,30.12,19,7,6,15,10,,0.04,6,,215
2013-8-14,67,63,59,64,61,57,100,93,83,30.12,30.06,29.98,12,6,2,14,9,,0.04,7,Rain,194
2013-8-15,66,62,59,64,61,54,100,93,82,30.01,29.90,29.80,16,6,2,20,11,,0.83,6,Rain,212
2013-8-16,68,62,57,59,55,52,94,79,60,29.98,29.94,29.89,19,7,6,20,10,,0.00,5,Rain,232
2013-8-17,67,62,57,64,58,54,100,84,72,29.86,29.66,29.56,12,6,1,24,14,,0.04,6,Rain,216
2013-8-18,64,60,55,54,51,48,88,76,54,29.95,29.80,29.68,16,7,6,20,13,,0.00,4,Rain,252
2013-8-19,66,60,53,57,54,50,88,80,59,30.27,30.13,29.95,16,7,6,20,10,,0.00,5,Rain,238
2013-8-20,67,62,56,59,56,54,94,80,57,30.30,30.22,30.12,16,7,6,20,10,30,0.00,6,,170
2013-8-21,66,62,57,61,58,55,94,84,76,30.16,30.13,30.09,19,7,6,23,15,31,0.00,5,Rain,237
2013-8-22,71,62,53,59,56,54,100,85,64,30.15,30.03,29.92,19,6,2,17,7,,0.00,6,Fog-Rain,163
2013-8-23,64,60,55,59,55,46,94,82,63,30.04,29.91,29.83,16,6,2,20,13,,0.02,6,Rain,249
2013-8-24,63,58,54,61,54,48,100,85,64,30.06,30.01,29.92,12,6,2,16,8,,0.12,6,Rain,236
2013-8-25,63,59,55,55,55,54,100,86,68,30.21,30.13,30.01,19,7,6,15,8,,0.00,6,,311
2013-8-26,63,60,56,59,56,54,94,87,75,30.23,30.19,30.15,19,7,6,9,5,,0.00,6,,283
2013-8-27,67,62,57,61,58,51,100,85,68,30.28,30.19,30.15,19,7,6,12,7,,0.00,6,Rain,281
2013-8-28,68,60,51,57,53,48,94,80,60,30.29,30.24,30.18,19,8,5,16,6,,0.00,6,Rain,245
2013-8-29,64,62,59,61,58,55,100,88,75,30.18,30.14,30.12,16,6,2,16,9,,0.01,6,Rain,234
2013-8-30,66,58,51,61,55,46,94,84,62,30.30,30.11,30.01,12,6,2,22,11,28,0.08,6,Rain,237
2013-8-31,63,57,51,52,48,45,82,69,53,30.51,30.42,30.30,16,6,6,21,9,,0.00,5,Rain,274